Mendota, IL (61342)

11:21 PM CST on February 10, 2016 (GMT -0600)
Welland and Angling Roads | | Change Station
CLOSE
Current Station
Personal Weather Station
Location: Earlville, IL
Elevation: 833 ft
Nearby Weather Stations

Elev 833 ft 41.63 °N, 89.02 °W | Updated 10 seconds ago

Overcast
Overcast
11.7 °F
Feels Like 12 °F
N
2.2
Wind Variable Wind from NNW
Gusts 3.8 mph

Today
High -- | Low -- °F
--% Chance of Precip.
Yesterday
High -- | Low -- °F
Precip. -- in
Pressure 30.19 in
Visibility 10.0 miles
Clouds Overcast 12000 ft
Windchill 12 °F
Dew Point 4 °F
Humidity 69%
Rainfall 0.00 in
Snow Depth Not available.
6:58 AM 5:23 PM
Waxing Crescent, 9% visible
METAR KVYS 110455Z AUTO 01005KT 10SM OVC120 M10/M15 A3019 RMK AO2 T10961146
Pressure 30.19 in
Visibility 10.0 miles
Clouds Overcast 12000 ft
Windchill 12 °F
Dew Point 4 °F
Humidity 69%
Rainfall 0.00 in
Snow Depth Not available.
6:58 AM 5:23 PM
Waxing Crescent, 9% visible
METAR KVYS 110455Z AUTO 01005KT 10SM OVC120 M10/M15 A3019 RMK AO2 T10961146

10-Day Weather Forecast

Almanac

Astronomy

Feb. 10, 2016 Rise Set
Actual Time
Civil Twilight
Nautical Twilight
Astronomical Twilight
Moon
Length of Visible Light
Length of Day
Tomorrow will be .
, % of the Moon is Illuminated

Today's Extremes

State Highs State Lows

Community

WunderPhotos

Upload Photos

1,892,023 photos uploaded!

WunderBlog® & News

Nearby

Air Quality

  Air Quality AQ Index Pollutant
Not available.

Snow Depth

Station Depth Elevation

Earthquake Activity

City Distance Mag. Time & Date
Minimum magnitude displayed is 2.5.

Coastal Water Temperatures

Place Temperature

Stations

Nearby Weather Stations

Station Location Temp. Windchill Dew Point Humidity Wind Precip. Elev Updated Type
                   

Watches & Warnings

There are currently no watches in effect.